Woodland Addition, Illinois
Current Conditions -  °F | °C
As of 3:55 PM on Thursday 27 Nov 2014 (Local Time) from KVYS Reporting Station
Overcast Overcast  
Wind Chill: 11°   Ceiling: 3000
Heat Index: 23°   Visibility: 10mi
Dew Point: 16°   Wind: 13mph
Humidity: 76%   Direction: 290°WNW
Pressure: 30.42"   Gusts: NA
Location:  41.4349°N, 88.8687°W
Report Text: KVYS 272155Z AUTO 29011KT 10SM OVC030 M05/M09 A3042 RMK AO2 T10511088
Loading
Personal Weather Stations






























Interactive Weather Map New forecast layout! Learn more

10-Day Weather Forecast

Advertisements
Track Severe Weather on mobile